sensor_id;sensor_type;location;lat;lon;timestamp;P1;durP1;ratioP1;P2;durP2;ratioP2
82401;SDS011;72040;55.842;37.384;2023-10-31T00:01:56;4.00;;;1.42;;
82401;SDS011;72040;55.842;37.384;2023-10-31T00:04:22;4.78;;;1.23;;
82401;SDS011;72040;55.842;37.384;2023-10-31T00:06:48;3.05;;;1.23;;
82401;SDS011;72040;55.842;37.384;2023-10-31T00:09:14;2.63;;;1.77;;
82401;SDS011;72040;55.842;37.384;2023-10-31T00:11:43;2.85;;;1.35;;
82401;SDS011;72040;55.842;37.384;2023-10-31T00:14:09;5.47;;;1.38;;
82401;SDS011;72040;55.842;37.384;2023-10-31T00:16:35;6.13;;;1.08;;
82401;SDS011;72040;55.842;37.384;2023-10-31T00:19:01;2.72;;;1.58;;
82401;SDS011;72040;55.842;37.384;2023-10-31T00:21:27;2.55;;;1.27;;
82401;SDS011;72040;55.842;37.384;2023-10-31T00:23:53;3.60;;;1.60;;
82401;SDS011;72040;55.842;37.384;2023-10-31T00:26:18;3.70;;;1.88;;
82401;SDS011;72040;55.842;37.384;2023-10-31T00:28:44;4.30;;;1.35;;
82401;SDS011;72040;55.842;37.384;2023-10-31T00:31:10;5.05;;;1.23;;
82401;SDS011;72040;55.842;37.384;2023-10-31T00:33:37;3.03;;;1.35;;
82401;SDS011;72040;55.842;37.384;2023-10-31T00:36:04;3.13;;;1.55;;
82401;SDS011;72040;55.842;37.384;2023-10-31T00:38:30;3.75;;;1.60;;
82401;SDS011;72040;55.842;37.384;2023-10-31T00:40:56;2.75;;;1.65;;
82401;SDS011;72040;55.842;37.384;2023-10-31T00:43:21;2.47;;;1.83;;
82401;SDS011;72040;55.842;37.384;2023-10-31T00:45:47;3.42;;;1.67;;
82401;SDS011;72040;55.842;37.384;2023-10-31T00:48:13;3.53;;;1.50;;
82401;SDS011;72040;55.842;37.384;2023-10-31T00:50:39;3.60;;;2.05;;
82401;SDS011;72040;55.842;37.384;2023-10-31T00:53:05;2.65;;;1.20;;
82401;SDS011;72040;55.842;37.384;2023-10-31T00:55:30;3.35;;;1.70;;
82401;SDS011;72040;55.842;37.384;2023-10-31T00:57:56;3.25;;;1.13;;
82401;SDS011;72040;55.842;37.384;2023-10-31T01:00:22;2.50;;;0.98;;
82401;SDS011;72040;55.842;37.384;2023-10-31T01:02:49;2.20;;;1.10;;
82401;SDS011;72040;55.842;37.384;2023-10-31T01:05:14;2.25;;;1.35;;
82401;SDS011;72040;55.842;37.384;2023-10-31T01:07:40;2.78;;;1.20;;
82401;SDS011;72040;55.842;37.384;2023-10-31T01:10:07;3.38;;;1.23;;
82401;SDS011;72040;55.842;37.384;2023-10-31T01:12:33;2.70;;;1.17;;
82401;SDS011;72040;55.842;37.384;2023-10-31T01:14:59;2.40;;;1.20;;
82401;SDS011;72040;55.842;37.384;2023-10-31T01:17:25;2.60;;;1.20;;
82401;SDS011;72040;55.842;37.384;2023-10-31T01:19:50;2.95;;;1.23;;
82401;SDS011;72040;55.842;37.384;2023-10-31T01:22:16;2.78;;;1.35;;
82401;SDS011;72040;55.842;37.384;2023-10-31T01:24:42;2.40;;;1.35;;
82401;SDS011;72040;55.842;37.384;2023-10-31T01:27:07;3.03;;;1.02;;
82401;SDS011;72040;55.842;37.384;2023-10-31T01:29:33;2.20;;;0.98;;
82401;SDS011;72040;55.842;37.384;2023-10-31T01:31:58;2.53;;;1.33;;
82401;SDS011;72040;55.842;37.384;2023-10-31T01:34:25;2.28;;;0.93;;
82401;SDS011;72040;55.842;37.384;2023-10-31T01:36:52;2.70;;;1.70;;
82401;SDS011;72040;55.842;37.384;2023-10-31T01:39:17;2.50;;;1.33;;
82401;SDS011;72040;55.842;37.384;2023-10-31T01:41:43;2.40;;;1.38;;
82401;SDS011;72040;55.842;37.384;2023-10-31T01:44:09;2.20;;;1.10;;
82401;SDS011;72040;55.842;37.384;2023-10-31T01:46:35;2.55;;;1.27;;
82401;SDS011;72040;55.842;37.384;2023-10-31T01:49:01;2.42;;;1.35;;
82401;SDS011;72040;55.842;37.384;2023-10-31T01:51:28;3.65;;;1.10;;
82401;SDS011;72040;55.842;37.384;2023-10-31T01:53:53;2.65;;;1.33;;
82401;SDS011;72040;55.842;37.384;2023-10-31T01:56:19;2.10;;;0.98;;
82401;SDS011;72040;55.842;37.384;2023-10-31T01:58:45;3.58;;;1.42;;
82401;SDS011;72040;55.842;37.384;2023-10-31T02:01:12;2.45;;;0.77;;
82401;SDS011;72040;55.842;37.384;2023-10-31T02:03:38;2.10;;;0.85;;
82401;SDS011;72040;55.842;37.384;2023-10-31T02:06:04;2.72;;;0.95;;
82401;SDS011;72040;55.842;37.384;2023-10-31T02:08:30;2.08;;;0.95;;
82401;SDS011;72040;55.842;37.384;2023-10-31T02:10:56;2.08;;;0.93;;
82401;SDS011;72040;55.842;37.384;2023-10-31T02:13:22;2.30;;;0.93;;
82401;SDS011;72040;55.842;37.384;2023-10-31T02:15:48;2.55;;;0.95;;
82401;SDS011;72040;55.842;37.384;2023-10-31T02:18:14;2.90;;;0.70;;
82401;SDS011;72040;55.842;37.384;2023-10-31T02:21:00;2.08;;;0.93;;
82401;SDS011;72040;55.842;37.384;2023-10-31T02:23:25;2.50;;;1.05;;
82401;SDS011;72040;55.842;37.384;2023-10-31T02:25:51;2.22;;;0.98;;
82401;SDS011;72040;55.842;37.384;2023-10-31T02:28:17;2.55;;;1.13;;
82401;SDS011;72040;55.842;37.384;2023-10-31T02:30:42;2.22;;;1.08;;
82401;SDS011;72040;55.842;37.384;2023-10-31T02:33:08;2.38;;;1.02;;
82401;SDS011;72040;55.842;37.384;2023-10-31T02:35:34;2.60;;;1.30;;
82401;SDS011;72040;55.842;37.384;2023-10-31T02:37:59;2.13;;;0.93;;
82401;SDS011;72040;55.842;37.384;2023-10-31T02:40:25;4.65;;;0.88;;
82401;SDS011;72040;55.842;37.384;2023-10-31T02:42:51;2.63;;;1.10;;
82401;SDS011;72040;55.842;37.384;2023-10-31T02:45:17;5.15;;;0.95;;
82401;SDS011;72040;55.842;37.384;2023-10-31T02:47:42;3.63;;;1.08;;
82401;SDS011;72040;55.842;37.384;2023-10-31T02:50:08;6.80;;;0.95;;
82401;SDS011;72040;55.842;37.384;2023-10-31T02:52:35;8.10;;;1.10;;
82401;SDS011;72040;55.842;37.384;2023-10-31T02:55:01;2.35;;;0.80;;
82401;SDS011;72040;55.842;37.384;2023-10-31T02:57:31;2.40;;;1.08;;
82401;SDS011;72040;55.842;37.384;2023-10-31T02:59:56;3.42;;;0.70;;
82401;SDS011;72040;55.842;37.384;2023-10-31T03:02:22;2.17;;;1.05;;
82401;SDS011;72040;55.842;37.384;2023-10-31T03:04:48;2.22;;;0.93;;
82401;SDS011;72040;55.842;37.384;2023-10-31T03:07:14;2.35;;;1.10;;
82401;SDS011;72040;55.842;37.384;2023-10-31T03:09:39;2.20;;;0.82;;
82401;SDS011;72040;55.842;37.384;2023-10-31T03:12:05;1.80;;;0.75;;
82401;SDS011;72040;55.842;37.384;2023-10-31T03:14:31;2.00;;;0.93;;
82401;SDS011;72040;55.842;37.384;2023-10-31T03:16:57;3.90;;;1.10;;
82401;SDS011;72040;55.842;37.384;2023-10-31T03:19:23;2.60;;;1.23;;
82401;SDS011;72040;55.842;37.384;2023-10-31T03:21:49;1.67;;;0.75;;
82401;SDS011;72040;55.842;37.384;2023-10-31T03:24:15;2.55;;;1.05;;
82401;SDS011;72040;55.842;37.384;2023-10-31T03:26:41;1.80;;;0.95;;
82401;SDS011;72040;55.842;37.384;2023-10-31T03:29:07;1.60;;;0.85;;
82401;SDS011;72040;55.842;37.384;2023-10-31T03:31:34;2.75;;;1.80;;
82401;SDS011;72040;55.842;37.384;2023-10-31T03:34:00;2.00;;;1.08;;
82401;SDS011;72040;55.842;37.384;2023-10-31T03:36:25;2.33;;;1.02;;
82401;SDS011;72040;55.842;37.384;2023-10-31T03:38:51;1.88;;;0.88;;
82401;SDS011;72040;55.842;37.384;2023-10-31T03:41:17;1.98;;;0.85;;
82401;SDS011;72040;55.842;37.384;2023-10-31T03:43:42;2.13;;;0.80;;
82401;SDS011;72040;55.842;37.384;2023-10-31T03:46:09;2.10;;;0.95;;
82401;SDS011;72040;55.842;37.384;2023-10-31T03:48:34;2.80;;;0.90;;
82401;SDS011;72040;55.842;37.384;2023-10-31T03:51:00;4.50;;;0.95;;
82401;SDS011;72040;55.842;37.384;2023-10-31T03:53:29;2.38;;;1.08;;
82401;SDS011;72040;55.842;37.384;2023-10-31T03:55:55;3.65;;;0.90;;
82401;SDS011;72040;55.842;37.384;2023-10-31T03:58:21;3.75;;;1.23;;
82401;SDS011;72040;55.842;37.384;2023-10-31T04:00:49;2.03;;;0.95;;
82401;SDS011;72040;55.842;37.384;2023-10-31T04:03:14;2.00;;;0.82;;
82401;SDS011;72040;55.842;37.384;2023-10-31T04:05:40;2.78;;;1.15;;
82401;SDS011;72040;55.842;37.384;2023-10-31T04:08:06;3.00;;;0.75;;
82401;SDS011;72040;55.842;37.384;2023-10-31T04:10:32;1.95;;;0.85;;
82401;SDS011;72040;55.842;37.384;2023-10-31T04:12:58;3.45;;;0.73;;
82401;SDS011;72040;55.842;37.384;2023-10-31T04:15:24;2.15;;;0.60;;
82401;SDS011;72040;55.842;37.384;2023-10-31T04:17:52;1.80;;;0.52;;
82401;SDS011;72040;55.842;37.384;2023-10-31T04:20:18;2.00;;;0.90;;
82401;SDS011;72040;55.842;37.384;2023-10-31T04:22:44;1.90;;;0.60;;
82401;SDS011;72040;55.842;37.384;2023-10-31T04:25:10;1.95;;;0.68;;
82401;SDS011;72040;55.842;37.384;2023-10-31T04:27:39;1.80;;;0.63;;
82401;SDS011;72040;55.842;37.384;2023-10-31T04:30:05;1.80;;;0.82;;
82401;SDS011;72040;55.842;37.384;2023-10-31T04:32:32;2.20;;;1.05;;
82401;SDS011;72040;55.842;37.384;2023-10-31T04:34:57;1.92;;;0.50;;
82401;SDS011;72040;55.842;37.384;2023-10-31T04:39:51;5.63;;;0.70;;
82401;SDS011;72040;55.842;37.384;2023-10-31T04:42:17;1.90;;;0.77;;
82401;SDS011;72040;55.842;37.384;2023-10-31T04:44:45;1.60;;;0.65;;
82401;SDS011;72040;55.842;37.384;2023-10-31T04:47:12;2.45;;;1.40;;
82401;SDS011;72040;55.842;37.384;2023-10-31T04:49:38;3.03;;;1.15;;
82401;SDS011;72040;55.842;37.384;2023-10-31T04:52:03;2.80;;;1.02;;
82401;SDS011;72040;55.842;37.384;2023-10-31T04:54:29;2.33;;;1.10;;
82401;SDS011;72040;55.842;37.384;2023-10-31T04:56:55;2.25;;;0.60;;
82401;SDS011;72040;55.842;37.384;2023-10-31T04:59:23;4.72;;;0.98;;
82401;SDS011;72040;55.842;37.384;2023-10-31T05:01:58;3.33;;;0.82;;
82401;SDS011;72040;55.842;37.384;2023-10-31T05:04:26;1.92;;;0.73;;
82401;SDS011;72040;55.842;37.384;2023-10-31T05:06:57;6.25;;;1.25;;
82401;SDS011;72040;55.842;37.384;2023-10-31T05:09:26;3.42;;;0.75;;
82401;SDS011;72040;55.842;37.384;2023-10-31T05:11:55;4.00;;;0.70;;
82401;SDS011;72040;55.842;37.384;2023-10-31T05:14:24;3.42;;;0.90;;
82401;SDS011;72040;55.842;37.384;2023-10-31T05:16:51;3.58;;;1.17;;
82401;SDS011;72040;55.842;37.384;2023-10-31T05:19:19;2.50;;;0.98;;
82401;SDS011;72040;55.842;37.384;2023-10-31T05:21:46;2.13;;;1.17;;
82401;SDS011;72040;55.842;37.384;2023-10-31T05:24:11;2.30;;;1.30;;
82401;SDS011;72040;55.842;37.384;2023-10-31T05:26:39;2.47;;;0.88;;
82401;SDS011;72040;55.842;37.384;2023-10-31T05:29:05;2.50;;;1.10;;
82401;SDS011;72040;55.842;37.384;2023-10-31T05:31:30;2.28;;;1.10;;
82401;SDS011;72040;55.842;37.384;2023-10-31T05:33:56;2.25;;;1.15;;
82401;SDS011;72040;55.842;37.384;2023-10-31T05:36:25;1.90;;;0.80;;
82401;SDS011;72040;55.842;37.384;2023-10-31T05:38:51;2.80;;;0.93;;
82401;SDS011;72040;55.842;37.384;2023-10-31T05:41:19;2.22;;;0.93;;
82401;SDS011;72040;55.842;37.384;2023-10-31T05:43:45;2.05;;;0.93;;
82401;SDS011;72040;55.842;37.384;2023-10-31T05:46:10;2.40;;;0.93;;
82401;SDS011;72040;55.842;37.384;2023-10-31T05:48:38;2.53;;;1.13;;
82401;SDS011;72040;55.842;37.384;2023-10-31T05:51:10;3.75;;;1.10;;
82401;SDS011;72040;55.842;37.384;2023-10-31T05:56:09;2.45;;;0.90;;
82401;SDS011;72040;55.842;37.384;2023-10-31T05:58:41;3.60;;;1.42;;
82401;SDS011;72040;55.842;37.384;2023-10-31T06:01:22;2.45;;;1.13;;
82401;SDS011;72040;55.842;37.384;2023-10-31T06:03:48;2.67;;;1.27;;
82401;SDS011;72040;55.842;37.384;2023-10-31T06:06:16;3.90;;;1.30;;
82401;SDS011;72040;55.842;37.384;2023-10-31T06:08:42;2.22;;;1.13;;
82401;SDS011;72040;55.842;37.384;2023-10-31T06:11:13;2.63;;;1.23;;
82401;SDS011;72040;55.842;37.384;2023-10-31T06:13:42;2.42;;;1.45;;
82401;SDS011;72040;55.842;37.384;2023-10-31T06:16:07;3.03;;;1.15;;
82401;SDS011;72040;55.842;37.384;2023-10-31T06:18:35;2.30;;;1.20;;
82401;SDS011;72040;55.842;37.384;2023-10-31T06:21:09;2.40;;;1.25;;
82401;SDS011;72040;55.842;37.384;2023-10-31T06:23:36;3.00;;;1.27;;
82401;SDS011;72040;55.842;37.384;2023-10-31T06:26:11;2.22;;;1.00;;
82401;SDS011;72040;55.842;37.384;2023-10-31T06:28:37;3.42;;;1.33;;
82401;SDS011;72040;55.842;37.384;2023-10-31T06:31:05;2.67;;;1.42;;
82401;SDS011;72040;55.842;37.384;2023-10-31T06:33:31;2.38;;;1.20;;
82401;SDS011;72040;55.842;37.384;2023-10-31T06:35:59;2.60;;;1.25;;
82401;SDS011;72040;55.842;37.384;2023-10-31T06:38:28;3.45;;;1.33;;
82401;SDS011;72040;55.842;37.384;2023-10-31T06:40:58;3.83;;;1.05;;
82401;SDS011;72040;55.842;37.384;2023-10-31T06:45:53;3.55;;;1.48;;
82401;SDS011;72040;55.842;37.384;2023-10-31T06:48:25;2.85;;;1.20;;
82401;SDS011;72040;55.842;37.384;2023-10-31T06:50:52;2.10;;;1.17;;
82401;SDS011;72040;55.842;37.384;2023-10-31T06:53:18;2.67;;;1.20;;
82401;SDS011;72040;55.842;37.384;2023-10-31T06:55:44;3.90;;;1.15;;
82401;SDS011;72040;55.842;37.384;2023-10-31T06:58:09;3.88;;;1.95;;
82401;SDS011;72040;55.842;37.384;2023-10-31T07:00:35;4.82;;;1.95;;
82401;SDS011;72040;55.842;37.384;2023-10-31T07:03:01;3.17;;;1.35;;
82401;SDS011;72040;55.842;37.384;2023-10-31T07:05:31;3.60;;;1.70;;
82401;SDS011;72040;55.842;37.384;2023-10-31T07:07:57;5.63;;;2.22;;
82401;SDS011;72040;55.842;37.384;2023-10-31T07:10:23;3.13;;;1.58;;
82401;SDS011;72040;55.842;37.384;2023-10-31T07:12:50;8.80;;;1.63;;
82401;SDS011;72040;55.842;37.384;2023-10-31T07:15:15;6.30;;;1.83;;
82401;SDS011;72040;55.842;37.384;2023-10-31T07:17:44;9.10;;;1.70;;
82401;SDS011;72040;55.842;37.384;2023-10-31T07:20:09;7.53;;;2.33;;
82401;SDS011;72040;55.842;37.384;2023-10-31T07:22:38;9.63;;;2.00;;
82401;SDS011;72040;55.842;37.384;2023-10-31T07:25:06;16.10;;;4.28;;
82401;SDS011;72040;55.842;37.384;2023-10-31T07:27:32;13.10;;;6.20;;
82401;SDS011;72040;55.842;37.384;2023-10-31T07:30:02;19.08;;;8.98;;
82401;SDS011;72040;55.842;37.384;2023-10-31T07:32:36;19.13;;;9.60;;
82401;SDS011;72040;55.842;37.384;2023-10-31T07:35:01;16.05;;;7.93;;
82401;SDS011;72040;55.842;37.384;2023-10-31T07:37:29;25.67;;;11.27;;
82401;SDS011;72040;55.842;37.384;2023-10-31T07:39:55;16.88;;;10.05;;
82401;SDS011;72040;55.842;37.384;2023-10-31T07:42:21;18.00;;;8.35;;
82401;SDS011;72040;55.842;37.384;2023-10-31T07:44:46;19.08;;;9.40;;
82401;SDS011;72040;55.842;37.384;2023-10-31T07:47:12;12.48;;;7.50;;
82401;SDS011;72040;55.842;37.384;2023-10-31T07:49:39;14.77;;;8.48;;
82401;SDS011;72040;55.842;37.384;2023-10-31T07:52:04;12.45;;;7.28;;
82401;SDS011;72040;55.842;37.384;2023-10-31T07:54:30;13.00;;;6.63;;
82401;SDS011;72040;55.842;37.384;2023-10-31T07:56:57;11.13;;;5.70;;
82401;SDS011;72040;55.842;37.384;2023-10-31T07:59:23;16.17;;;8.68;;
82401;SDS011;72040;55.842;37.384;2023-10-31T08:01:49;13.27;;;6.18;;
82401;SDS011;72040;55.842;37.384;2023-10-31T08:04:15;10.85;;;5.68;;
82401;SDS011;72040;55.842;37.384;2023-10-31T08:06:45;7.35;;;5.40;;
82401;SDS011;72040;55.842;37.384;2023-10-31T08:09:14;8.82;;;5.55;;
82401;SDS011;72040;55.842;37.384;2023-10-31T08:11:41;9.18;;;5.95;;
82401;SDS011;72040;55.842;37.384;2023-10-31T08:14:07;7.85;;;4.75;;
82401;SDS011;72040;55.842;37.384;2023-10-31T08:16:34;9.10;;;4.25;;
82401;SDS011;72040;55.842;37.384;2023-10-31T08:19:00;7.03;;;4.70;;
82401;SDS011;72040;55.842;37.384;2023-10-31T08:21:26;8.10;;;5.03;;
82401;SDS011;72040;55.842;37.384;2023-10-31T08:23:54;9.43;;;5.32;;
82401;SDS011;72040;55.842;37.384;2023-10-31T08:26:20;7.88;;;4.97;;
82401;SDS011;72040;55.842;37.384;2023-10-31T08:28:46;10.10;;;3.75;;
82401;SDS011;72040;55.842;37.384;2023-10-31T08:31:12;6.13;;;4.05;;
82401;SDS011;72040;55.842;37.384;2023-10-31T08:33:40;10.55;;;4.13;;
82401;SDS011;72040;55.842;37.384;2023-10-31T08:36:06;7.22;;;4.03;;
82401;SDS011;72040;55.842;37.384;2023-10-31T08:38:32;7.78;;;5.13;;
82401;SDS011;72040;55.842;37.384;2023-10-31T08:40:58;13.60;;;5.00;;
82401;SDS011;72040;55.842;37.384;2023-10-31T08:43:24;6.93;;;4.50;;
82401;SDS011;72040;55.842;37.384;2023-10-31T08:45:50;7.93;;;4.03;;
82401;SDS011;72040;55.842;37.384;2023-10-31T08:48:15;5.55;;;3.65;;
82401;SDS011;72040;55.842;37.384;2023-10-31T08:50:41;6.60;;;4.03;;
82401;SDS011;72040;55.842;37.384;2023-10-31T08:53:07;5.20;;;3.65;;
82401;SDS011;72040;55.842;37.384;2023-10-31T08:55:33;5.72;;;3.35;;
82401;SDS011;72040;55.842;37.384;2023-10-31T08:58:01;3.78;;;3.13;;
82401;SDS011;72040;55.842;37.384;2023-10-31T09:00:26;4.75;;;2.88;;
82401;SDS011;72040;55.842;37.384;2023-10-31T09:02:53;4.63;;;3.60;;
82401;SDS011;72040;55.842;37.384;2023-10-31T09:05:26;3.85;;;3.13;;
82401;SDS011;72040;55.842;37.384;2023-10-31T09:07:53;5.50;;;3.13;;
82401;SDS011;72040;55.842;37.384;2023-10-31T09:10:18;4.57;;;2.63;;
82401;SDS011;72040;55.842;37.384;2023-10-31T09:12:44;6.30;;;2.92;;
82401;SDS011;72040;55.842;37.384;2023-10-31T09:15:11;6.35;;;2.85;;
82401;SDS011;72040;55.842;37.384;2023-10-31T09:17:39;4.82;;;3.05;;
82401;SDS011;72040;55.842;37.384;2023-10-31T09:20:05;5.95;;;3.25;;
82401;SDS011;72040;55.842;37.384;2023-10-31T09:22:35;5.85;;;3.42;;
82401;SDS011;72040;55.842;37.384;2023-10-31T09:25:00;5.95;;;3.03;;
82401;SDS011;72040;55.842;37.384;2023-10-31T09:27:30;9.55;;;3.78;;
82401;SDS011;72040;55.842;37.384;2023-10-31T09:29:56;5.57;;;3.00;;
82401;SDS011;72040;55.842;37.384;2023-10-31T09:32:25;5.38;;;3.15;;
82401;SDS011;72040;55.842;37.384;2023-10-31T09:34:51;4.47;;;2.80;;
82401;SDS011;72040;55.842;37.384;2023-10-31T09:37:17;6.35;;;2.95;;
82401;SDS011;72040;55.842;37.384;2023-10-31T09:39:53;5.30;;;2.97;;
82401;SDS011;72040;55.842;37.384;2023-10-31T09:42:19;8.77;;;2.65;;
82401;SDS011;72040;55.842;37.384;2023-10-31T09:44:45;4.70;;;2.70;;
82401;SDS011;72040;55.842;37.384;2023-10-31T09:47:14;9.95;;;3.28;;
82401;SDS011;72040;55.842;37.384;2023-10-31T09:49:43;4.07;;;2.60;;
82401;SDS011;72040;55.842;37.384;2023-10-31T09:52:13;4.38;;;2.83;;
82401;SDS011;72040;55.842;37.384;2023-10-31T09:54:39;5.18;;;3.28;;
82401;SDS011;72040;55.842;37.384;2023-10-31T09:59:50;7.28;;;2.47;;
82401;SDS011;72040;55.842;37.384;2023-10-31T10:02:16;5.05;;;2.60;;
82401;SDS011;72040;55.842;37.384;2023-10-31T10:04:41;4.30;;;2.28;;
82401;SDS011;72040;55.842;37.384;2023-10-31T10:07:07;6.15;;;2.08;;
82401;SDS011;72040;55.842;37.384;2023-10-31T10:09:33;6.40;;;3.13;;
82401;SDS011;72040;55.842;37.384;2023-10-31T10:12:00;4.35;;;2.72;;
82401;SDS011;72040;55.842;37.384;2023-10-31T10:14:26;6.55;;;2.55;;
82401;SDS011;72040;55.842;37.384;2023-10-31T10:16:57;4.82;;;2.42;;
82401;SDS011;72040;55.842;37.384;2023-10-31T10:19:23;6.75;;;2.28;;
82401;SDS011;72040;55.842;37.384;2023-10-31T10:21:53;5.50;;;2.33;;
82401;SDS011;72040;55.842;37.384;2023-10-31T10:24:23;4.43;;;2.75;;
82401;SDS011;72040;55.842;37.384;2023-10-31T10:26:51;6.70;;;2.25;;
82401;SDS011;72040;55.842;37.384;2023-10-31T10:29:17;4.70;;;2.88;;
82401;SDS011;72040;55.842;37.384;2023-10-31T10:31:44;3.15;;;1.70;;
82401;SDS011;72040;55.842;37.384;2023-10-31T10:34:11;4.30;;;1.92;;
82401;SDS011;72040;55.842;37.384;2023-10-31T10:36:39;4.72;;;2.55;;
82401;SDS011;72040;55.842;37.384;2023-10-31T10:39:05;4.57;;;2.38;;
82401;SDS011;72040;55.842;37.384;2023-10-31T10:41:33;8.45;;;2.25;;
82401;SDS011;72040;55.842;37.384;2023-10-31T10:44:05;3.22;;;1.95;;
82401;SDS011;72040;55.842;37.384;2023-10-31T10:46:33;3.75;;;1.50;;
82401;SDS011;72040;55.842;37.384;2023-10-31T10:48:59;4.03;;;2.70;;
82401;SDS011;72040;55.842;37.384;2023-10-31T10:51:39;4.60;;;1.88;;
82401;SDS011;72040;55.842;37.384;2023-10-31T11:00:04;6.35;;;1.95;;
82401;SDS011;72040;55.842;37.384;2023-10-31T11:02:39;3.97;;;2.28;;
82401;SDS011;72040;55.842;37.384;2023-10-31T11:08:24;4.40;;;2.33;;
82401;SDS011;72040;55.842;37.384;2023-10-31T11:11:16;3.75;;;1.85;;
82401;SDS011;72040;55.842;37.384;2023-10-31T11:13:45;3.53;;;2.22;;
82401;SDS011;72040;55.842;37.384;2023-10-31T11:16:13;3.72;;;2.15;;
82401;SDS011;72040;55.842;37.384;2023-10-31T11:18:42;3.20;;;1.95;;
82401;SDS011;72040;55.842;37.384;2023-10-31T11:21:10;3.90;;;2.40;;
82401;SDS011;72040;55.842;37.384;2023-10-31T11:23:36;3.20;;;1.98;;
82401;SDS011;72040;55.842;37.384;2023-10-31T11:26:01;4.28;;;1.98;;
82401;SDS011;72040;55.842;37.384;2023-10-31T11:28:28;3.70;;;1.45;;
82401;SDS011;72040;55.842;37.384;2023-10-31T11:30:53;7.47;;;2.97;;
82401;SDS011;72040;55.842;37.384;2023-10-31T11:33:24;3.25;;;2.05;;
82401;SDS011;72040;55.842;37.384;2023-10-31T11:35:50;3.83;;;2.03;;
82401;SDS011;72040;55.842;37.384;2023-10-31T11:38:17;5.25;;;2.70;;
82401;SDS011;72040;55.842;37.384;2023-10-31T11:41:00;5.65;;;3.33;;
82401;SDS011;72040;55.842;37.384;2023-10-31T11:43:50;7.70;;;3.50;;
82401;SDS011;72040;55.842;37.384;2023-10-31T11:46:20;5.75;;;4.25;;
82401;SDS011;72040;55.842;37.384;2023-10-31T11:48:54;8.57;;;3.72;;
82401;SDS011;72040;55.842;37.384;2023-10-31T11:51:21;9.30;;;4.75;;
82401;SDS011;72040;55.842;37.384;2023-10-31T11:53:50;7.63;;;4.38;;
82401;SDS011;72040;55.842;37.384;2023-10-31T11:56:16;7.10;;;3.67;;
82401;SDS011;72040;55.842;37.384;2023-10-31T11:58:43;5.70;;;3.50;;
82401;SDS011;72040;55.842;37.384;2023-10-31T12:01:09;7.35;;;3.65;;
82401;SDS011;72040;55.842;37.384;2023-10-31T12:03:39;6.35;;;3.70;;
82401;SDS011;72040;55.842;37.384;2023-10-31T12:06:06;8.77;;;4.43;;
82401;SDS011;72040;55.842;37.384;2023-10-31T12:08:35;5.25;;;3.50;;
82401;SDS011;72040;55.842;37.384;2023-10-31T12:11:05;7.70;;;4.18;;
82401;SDS011;72040;55.842;37.384;2023-10-31T12:13:42;6.70;;;3.63;;
82401;SDS011;72040;55.842;37.384;2023-10-31T12:16:16;5.70;;;3.80;;
82401;SDS011;72040;55.842;37.384;2023-10-31T12:18:42;6.32;;;4.68;;
82401;SDS011;72040;55.842;37.384;2023-10-31T12:21:07;8.85;;;4.38;;
82401;SDS011;72040;55.842;37.384;2023-10-31T12:23:34;6.40;;;3.60;;
82401;SDS011;72040;55.842;37.384;2023-10-31T12:25:59;7.85;;;3.47;;
82401;SDS011;72040;55.842;37.384;2023-10-31T12:28:25;6.38;;;3.33;;
82401;SDS011;72040;55.842;37.384;2023-10-31T12:30:53;5.40;;;2.90;;
82401;SDS011;72040;55.842;37.384;2023-10-31T12:33:20;4.80;;;3.20;;
82401;SDS011;72040;55.842;37.384;2023-10-31T12:35:51;5.18;;;3.38;;
82401;SDS011;72040;55.842;37.384;2023-10-31T12:38:18;3.90;;;2.75;;
82401;SDS011;72040;55.842;37.384;2023-10-31T12:40:45;4.63;;;3.75;;
82401;SDS011;72040;55.842;37.384;2023-10-31T12:43:11;4.60;;;3.53;;
82401;SDS011;72040;55.842;37.384;2023-10-31T12:45:37;5.45;;;3.15;;
82401;SDS011;72040;55.842;37.384;2023-10-31T12:48:07;6.15;;;3.20;;
82401;SDS011;72040;55.842;37.384;2023-10-31T12:50:34;7.68;;;2.90;;
82401;SDS011;72040;55.842;37.384;2023-10-31T12:53:05;5.05;;;3.20;;
82401;SDS011;72040;55.842;37.384;2023-10-31T12:55:42;6.22;;;3.20;;
82401;SDS011;72040;55.842;37.384;2023-10-31T12:58:11;5.20;;;2.92;;
82401;SDS011;72040;55.842;37.384;2023-10-31T13:00:46;7.88;;;3.85;;
82401;SDS011;72040;55.842;37.384;2023-10-31T13:03:12;7.90;;;3.13;;
82401;SDS011;72040;55.842;37.384;2023-10-31T13:05:40;6.43;;;3.08;;
82401;SDS011;72040;55.842;37.384;2023-10-31T13:08:10;9.65;;;3.35;;
82401;SDS011;72040;55.842;37.384;2023-10-31T13:10:39;5.18;;;3.20;;
82401;SDS011;72040;55.842;37.384;2023-10-31T13:13:05;6.50;;;3.70;;
82401;SDS011;72040;55.842;37.384;2023-10-31T13:15:30;11.35;;;4.13;;
82401;SDS011;72040;55.842;37.384;2023-10-31T13:17:58;8.18;;;3.25;;
82401;SDS011;72040;55.842;37.384;2023-10-31T13:20:24;5.72;;;2.85;;
82401;SDS011;72040;55.842;37.384;2023-10-31T13:22:50;6.70;;;3.42;;
82401;SDS011;72040;55.842;37.384;2023-10-31T13:25:17;6.70;;;3.67;;
82401;SDS011;72040;55.842;37.384;2023-10-31T13:27:45;5.72;;;3.08;;
82401;SDS011;72040;55.842;37.384;2023-10-31T13:30:16;6.72;;;3.28;;
82401;SDS011;72040;55.842;37.384;2023-10-31T13:32:44;5.50;;;3.67;;
82401;SDS011;72040;55.842;37.384;2023-10-31T13:35:11;5.30;;;3.58;;
82401;SDS011;72040;55.842;37.384;2023-10-31T13:37:39;5.13;;;3.28;;
82401;SDS011;72040;55.842;37.384;2023-10-31T13:40:05;6.22;;;3.38;;
82401;SDS011;72040;55.842;37.384;2023-10-31T13:42:33;6.65;;;3.45;;
82401;SDS011;72040;55.842;37.384;2023-10-31T13:44:59;8.73;;;4.38;;
82401;SDS011;72040;55.842;37.384;2023-10-31T13:47:25;11.50;;;4.85;;
82401;SDS011;72040;55.842;37.384;2023-10-31T13:49:51;6.63;;;4.93;;
82401;SDS011;72040;55.842;37.384;2023-10-31T13:52:23;6.05;;;4.22;;
82401;SDS011;72040;55.842;37.384;2023-10-31T13:54:48;9.63;;;4.45;;
82401;SDS011;72040;55.842;37.384;2023-10-31T13:57:15;7.47;;;4.45;;
82401;SDS011;72040;55.842;37.384;2023-10-31T13:59:41;7.18;;;4.20;;
82401;SDS011;72040;55.842;37.384;2023-10-31T14:02:07;6.65;;;5.20;;
82401;SDS011;72040;55.842;37.384;2023-10-31T14:04:33;7.43;;;4.72;;
82401;SDS011;72040;55.842;37.384;2023-10-31T14:07:02;7.28;;;4.47;;
82401;SDS011;72040;55.842;37.384;2023-10-31T14:09:29;8.05;;;4.75;;
82401;SDS011;72040;55.842;37.384;2023-10-31T14:11:55;7.68;;;5.13;;
82401;SDS011;72040;55.842;37.384;2023-10-31T14:14:22;9.77;;;5.63;;
82401;SDS011;72040;55.842;37.384;2023-10-31T14:16:51;5.80;;;4.88;;
82401;SDS011;72040;55.842;37.384;2023-10-31T14:19:19;7.85;;;4.75;;
82401;SDS011;72040;55.842;37.384;2023-10-31T14:21:45;7.80;;;5.60;;
82401;SDS011;72040;55.842;37.384;2023-10-31T14:24:11;6.70;;;5.20;;
82401;SDS011;72040;55.842;37.384;2023-10-31T14:26:37;9.05;;;5.18;;
82401;SDS011;72040;55.842;37.384;2023-10-31T14:31:37;9.30;;;5.40;;
82401;SDS011;72040;55.842;37.384;2023-10-31T14:34:04;8.70;;;5.10;;
82401;SDS011;72040;55.842;37.384;2023-10-31T14:36:30;11.18;;;5.53;;
82401;SDS011;72040;55.842;37.384;2023-10-31T14:38:56;7.05;;;5.18;;
82401;SDS011;72040;55.842;37.384;2023-10-31T14:41:24;7.55;;;4.95;;
82401;SDS011;72040;55.842;37.384;2023-10-31T14:46:21;6.93;;;5.10;;
82401;SDS011;72040;55.842;37.384;2023-10-31T14:48:46;14.18;;;5.57;;
82401;SDS011;72040;55.842;37.384;2023-10-31T14:51:14;7.68;;;4.80;;
82401;SDS011;72040;55.842;37.384;2023-10-31T14:53:40;6.25;;;5.00;;
82401;SDS011;72040;55.842;37.384;2023-10-31T14:56:06;5.97;;;4.72;;
82401;SDS011;72040;55.842;37.384;2023-10-31T14:58:34;7.57;;;4.88;;